sensor_id;sensor_type;location;lat;lon;timestamp;temperature;humidity
40059;SHT31;25763;49.972;8.568;2023-04-05T00:01:20;2.80;67.62
40059;SHT31;25763;49.972;8.568;2023-04-05T00:03:46;2.75;68.26
40059;SHT31;25763;49.972;8.568;2023-04-05T00:06:12;2.61;68.95
40059;SHT31;25763;49.972;8.568;2023-04-05T00:08:38;2.53;69.40
40059;SHT31;25763;49.972;8.568;2023-04-05T00:11:03;2.45;69.63
40059;SHT31;25763;49.972;8.568;2023-04-05T00:13:28;2.33;69.79
40059;SHT31;25763;49.972;8.568;2023-04-05T00:15:54;2.37;69.79
40059;SHT31;25763;49.972;8.568;2023-04-05T00:18:22;2.36;69.56
40059;SHT31;25763;49.972;8.568;2023-04-05T00:20:51;2.32;69.49
40059;SHT31;25763;49.972;8.568;2023-04-05T00:23:17;2.30;69.59
40059;SHT31;25763;49.972;8.568;2023-04-05T00:25:43;2.30;69.31
40059;SHT31;25763;49.972;8.568;2023-04-05T00:28:09;2.32;69.23
40059;SHT31;25763;49.972;8.568;2023-04-05T00:30:35;2.54;68.42
40059;SHT31;25763;49.972;8.568;2023-04-05T00:33:00;2.68;67.88
40059;SHT31;25763;49.972;8.568;2023-04-05T00:35:26;2.84;67.80
40059;SHT31;25763;49.972;8.568;2023-04-05T00:37:52;2.93;67.27
40059;SHT31;25763;49.972;8.568;2023-04-05T00:40:17;3.06;66.67
40059;SHT31;25763;49.972;8.568;2023-04-05T00:42:43;3.07;66.44
40059;SHT31;25763;49.972;8.568;2023-04-05T00:45:08;3.13;66.43
40059;SHT31;25763;49.972;8.568;2023-04-05T00:47:35;3.13;66.11
40059;SHT31;25763;49.972;8.568;2023-04-05T00:50:00;3.15;65.81
40059;SHT31;25763;49.972;8.568;2023-04-05T00:52:26;3.09;65.34
40059;SHT31;25763;49.972;8.568;2023-04-05T00:54:52;3.06;65.30
40059;SHT31;25763;49.972;8.568;2023-04-05T00:57:18;2.96;65.57
40059;SHT31;25763;49.972;8.568;2023-04-05T00:59:44;2.89;66.08
40059;SHT31;25763;49.972;8.568;2023-04-05T01:02:16;2.96;65.85
40059;SHT31;25763;49.972;8.568;2023-04-05T01:04:43;2.96;66.09
40059;SHT31;25763;49.972;8.568;2023-04-05T01:07:24;2.77;67.26
40059;SHT31;25763;49.972;8.568;2023-04-05T01:09:58;2.58;67.62
40059;SHT31;25763;49.972;8.568;2023-04-05T01:12:27;2.52;68.24
40059;SHT31;25763;49.972;8.568;2023-04-05T01:14:54;2.46;68.45
40059;SHT31;25763;49.972;8.568;2023-04-05T01:17:24;2.36;68.89
40059;SHT31;25763;49.972;8.568;2023-04-05T01:19:59;2.30;68.92
40059;SHT31;25763;49.972;8.568;2023-04-05T01:25:21;2.11;69.58
40059;SHT31;25763;49.972;8.568;2023-04-05T01:28:21;1.95;70.12
40059;SHT31;25763;49.972;8.568;2023-04-05T01:33:45;1.69;71.09
40059;SHT31;25763;49.972;8.568;2023-04-05T01:36:39;1.56;71.52
40059;SHT31;25763;49.972;8.568;2023-04-05T01:39:07;1.30;72.32
40059;SHT31;25763;49.972;8.568;2023-04-05T01:41:35;1.18;72.68
40059;SHT31;25763;49.972;8.568;2023-04-05T01:44:00;1.04;73.22
40059;SHT31;25763;49.972;8.568;2023-04-05T01:46:25;1.01;73.55
40059;SHT31;25763;49.972;8.568;2023-04-05T01:48:51;0.96;73.86
40059;SHT31;25763;49.972;8.568;2023-04-05T01:51:16;0.97;73.96
40059;SHT31;25763;49.972;8.568;2023-04-05T01:53:41;1.03;73.75
40059;SHT31;25763;49.972;8.568;2023-04-05T01:56:07;1.11;73.56
40059;SHT31;25763;49.972;8.568;2023-04-05T01:58:32;1.11;73.33
40059;SHT31;25763;49.972;8.568;2023-04-05T02:00:57;1.04;73.60
40059;SHT31;25763;49.972;8.568;2023-04-05T02:03:23;0.97;73.77
40059;SHT31;25763;49.972;8.568;2023-04-05T02:05:49;0.96;74.11
40059;SHT31;25763;49.972;8.568;2023-04-05T02:08:15;0.80;74.20
40059;SHT31;25763;49.972;8.568;2023-04-05T02:10:41;0.76;74.30
40059;SHT31;25763;49.972;8.568;2023-04-05T02:13:06;0.68;74.58
40059;SHT31;25763;49.972;8.568;2023-04-05T02:15:32;0.72;74.51
40059;SHT31;25763;49.972;8.568;2023-04-05T02:17:59;0.62;74.45
40059;SHT31;25763;49.972;8.568;2023-04-05T02:20:26;0.52;74.48
40059;SHT31;25763;49.972;8.568;2023-04-05T02:22:52;0.48;74.63
40059;SHT31;25763;49.972;8.568;2023-04-05T02:25:18;0.38;74.49
40059;SHT31;25763;49.972;8.568;2023-04-05T02:27:43;0.38;74.56
40059;SHT31;25763;49.972;8.568;2023-04-05T02:30:09;0.40;74.42
40059;SHT31;25763;49.972;8.568;2023-04-05T02:32:34;0.42;74.45
40059;SHT31;25763;49.972;8.568;2023-04-05T02:35:00;0.52;74.30
40059;SHT31;25763;49.972;8.568;2023-04-05T02:37:25;0.57;74.05
40059;SHT31;25763;49.972;8.568;2023-04-05T02:39:52;0.66;73.80
40059;SHT31;25763;49.972;8.568;2023-04-05T02:42:17;0.82;73.22
40059;SHT31;25763;49.972;8.568;2023-04-05T02:44:42;0.79;73.29
40059;SHT31;25763;49.972;8.568;2023-04-05T02:47:08;0.84;73.03
40059;SHT31;25763;49.972;8.568;2023-04-05T02:49:33;0.93;72.58
40059;SHT31;25763;49.972;8.568;2023-04-05T02:51:58;0.97;72.25
40059;SHT31;25763;49.972;8.568;2023-04-05T02:54:24;1.04;71.85
40059;SHT31;25763;49.972;8.568;2023-04-05T02:56:49;1.04;71.99
40059;SHT31;25763;49.972;8.568;2023-04-05T02:59:15;1.04;72.01
40059;SHT31;25763;49.972;8.568;2023-04-05T03:01:42;1.07;71.85
40059;SHT31;25763;49.972;8.568;2023-04-05T03:04:11;1.08;71.73
40059;SHT31;25763;49.972;8.568;2023-04-05T03:06:37;1.08;71.88
40059;SHT31;25763;49.972;8.568;2023-04-05T03:09:03;0.97;71.85
40059;SHT31;25763;49.972;8.568;2023-04-05T03:11:28;0.96;71.98
40059;SHT31;25763;49.972;8.568;2023-04-05T03:13:53;0.83;72.10
40059;SHT31;25763;49.972;8.568;2023-04-05T03:16:19;0.72;72.55
40059;SHT31;25763;49.972;8.568;2023-04-05T03:18:44;0.68;72.93
40059;SHT31;25763;49.972;8.568;2023-04-05T03:21:10;0.61;73.26
40059;SHT31;25763;49.972;8.568;2023-04-05T03:23:36;0.57;73.60
40059;SHT31;25763;49.972;8.568;2023-04-05T03:26:02;0.58;73.64
40059;SHT31;25763;49.972;8.568;2023-04-05T03:28:31;0.61;73.49
40059;SHT31;25763;49.972;8.568;2023-04-05T03:30:57;0.52;73.71
40059;SHT31;25763;49.972;8.568;2023-04-05T03:33:22;0.66;73.23
40059;SHT31;25763;49.972;8.568;2023-04-05T03:35:48;0.86;73.18
40059;SHT31;25763;49.972;8.568;2023-04-05T03:38:14;0.96;72.55
40059;SHT31;25763;49.972;8.568;2023-04-05T03:40:40;1.05;72.27
40059;SHT31;25763;49.972;8.568;2023-04-05T03:43:05;1.11;72.00
40059;SHT31;25763;49.972;8.568;2023-04-05T03:45:31;1.14;71.72
40059;SHT31;25763;49.972;8.568;2023-04-05T03:47:57;1.18;71.44
40059;SHT31;25763;49.972;8.568;2023-04-05T03:50:23;1.21;71.30
40059;SHT31;25763;49.972;8.568;2023-04-05T03:52:51;1.23;71.02
40059;SHT31;25763;49.972;8.568;2023-04-05T03:55:16;1.21;71.07
40059;SHT31;25763;49.972;8.568;2023-04-05T03:57:42;1.20;71.38
40059;SHT31;25763;49.972;8.568;2023-04-05T04:00:08;1.20;71.05
40059;SHT31;25763;49.972;8.568;2023-04-05T04:02:47;1.21;71.05
40059;SHT31;25763;49.972;8.568;2023-04-05T04:05:13;1.21;70.67
40059;SHT31;25763;49.972;8.568;2023-04-05T04:07:43;1.21;70.89
40059;SHT31;25763;49.972;8.568;2023-04-05T04:10:11;1.23;71.17
40059;SHT31;25763;49.972;8.568;2023-04-05T04:12:37;1.25;71.02
40059;SHT31;25763;49.972;8.568;2023-04-05T04:15:03;1.24;71.18
40059;SHT31;25763;49.972;8.568;2023-04-05T04:17:34;1.25;71.26
40059;SHT31;25763;49.972;8.568;2023-04-05T04:19:59;1.21;71.33
40059;SHT31;25763;49.972;8.568;2023-04-05T04:22:26;1.18;71.31
40059;SHT31;25763;49.972;8.568;2023-04-05T04:24:59;1.18;71.14
40059;SHT31;25763;49.972;8.568;2023-04-05T04:27:29;1.12;71.76
40059;SHT31;25763;49.972;8.568;2023-04-05T04:29:55;1.10;71.63
40059;SHT31;25763;49.972;8.568;2023-04-05T04:32:27;1.07;72.01
40059;SHT31;25763;49.972;8.568;2023-04-05T04:35:12;0.94;72.80
40059;SHT31;25763;49.972;8.568;2023-04-05T04:37:50;0.76;73.37
40059;SHT31;25763;49.972;8.568;2023-04-05T04:40:17;0.70;73.70
40059;SHT31;25763;49.972;8.568;2023-04-05T04:42:44;0.66;73.91
40059;SHT31;25763;49.972;8.568;2023-04-05T04:45:14;0.64;73.93
40059;SHT31;25763;49.972;8.568;2023-04-05T04:47:47;0.61;74.27
40059;SHT31;25763;49.972;8.568;2023-04-05T04:50:13;0.69;73.79
40059;SHT31;25763;49.972;8.568;2023-04-05T04:52:40;0.72;73.38
40059;SHT31;25763;49.972;8.568;2023-04-05T04:55:08;0.62;73.77
40059;SHT31;25763;49.972;8.568;2023-04-05T04:57:33;0.62;73.66
40059;SHT31;25763;49.972;8.568;2023-04-05T04:59:59;0.64;73.62
40059;SHT31;25763;49.972;8.568;2023-04-05T05:02:25;0.61;73.57
40059;SHT31;25763;49.972;8.568;2023-04-05T05:04:51;0.47;73.96
40059;SHT31;25763;49.972;8.568;2023-04-05T05:07:17;0.42;74.25
40059;SHT31;25763;49.972;8.568;2023-04-05T05:09:43;0.57;73.71
40059;SHT31;25763;49.972;8.568;2023-04-05T05:12:09;0.69;73.47
40059;SHT31;25763;49.972;8.568;2023-04-05T05:14:34;0.82;73.38
40059;SHT31;25763;49.972;8.568;2023-04-05T05:16:59;0.84;73.00
40059;SHT31;25763;49.972;8.568;2023-04-05T05:19:25;0.89;72.88
40059;SHT31;25763;49.972;8.568;2023-04-05T05:21:50;0.97;72.73
40059;SHT31;25763;49.972;8.568;2023-04-05T05:24:18;1.07;72.84
40059;SHT31;25763;49.972;8.568;2023-04-05T05:26:43;1.03;72.47
40059;SHT31;25763;49.972;8.568;2023-04-05T05:29:09;1.00;72.32
40059;SHT31;25763;49.972;8.568;2023-04-05T05:31:34;0.99;72.42
40059;SHT31;25763;49.972;8.568;2023-04-05T05:34:00;1.05;72.45
40059;SHT31;25763;49.972;8.568;2023-04-05T05:36:26;1.04;72.43
40059;SHT31;25763;49.972;8.568;2023-04-05T05:38:52;1.17;72.10
40059;SHT31;25763;49.972;8.568;2023-04-05T05:41:18;1.17;71.86
40059;SHT31;25763;49.972;8.568;2023-04-05T05:43:43;1.21;71.70
40059;SHT31;25763;49.972;8.568;2023-04-05T05:46:08;1.25;71.66
40059;SHT31;25763;49.972;8.568;2023-04-05T05:48:34;1.27;71.88
40059;SHT31;25763;49.972;8.568;2023-04-05T05:51:00;1.38;71.78
40059;SHT31;25763;49.972;8.568;2023-04-05T05:53:26;1.49;71.37
40059;SHT31;25763;49.972;8.568;2023-04-05T05:55:51;1.59;71.25
40059;SHT31;25763;49.972;8.568;2023-04-05T05:58:17;1.64;71.08
40059;SHT31;25763;49.972;8.568;2023-04-05T06:00:42;1.63;71.13
40059;SHT31;25763;49.972;8.568;2023-04-05T06:03:08;1.60;71.58
40059;SHT31;25763;49.972;8.568;2023-04-05T06:05:35;1.80;71.17
40059;SHT31;25763;49.972;8.568;2023-04-05T06:08:00;2.04;70.79
40059;SHT31;25763;49.972;8.568;2023-04-05T06:10:28;2.12;70.61
40059;SHT31;25763;49.972;8.568;2023-04-05T06:12:54;2.25;70.02
40059;SHT31;25763;49.972;8.568;2023-04-05T06:15:19;2.33;69.70
40059;SHT31;25763;49.972;8.568;2023-04-05T06:17:45;2.50;69.03
40059;SHT31;25763;49.972;8.568;2023-04-05T06:20:10;2.53;68.51
40059;SHT31;25763;49.972;8.568;2023-04-05T06:22:39;2.63;68.89
40059;SHT31;25763;49.972;8.568;2023-04-05T06:25:06;2.84;68.11
40059;SHT31;25763;49.972;8.568;2023-04-05T06:27:32;2.80;67.34
40059;SHT31;25763;49.972;8.568;2023-04-05T06:30:00;2.93;66.87
40059;SHT31;25763;49.972;8.568;2023-04-05T06:32:26;2.89;66.56
40059;SHT31;25763;49.972;8.568;2023-04-05T06:34:51;3.03;66.26
40059;SHT31;25763;49.972;8.568;2023-04-05T06:37:17;2.98;65.53
40059;SHT31;25763;49.972;8.568;2023-04-05T06:39:43;3.24;65.29
40059;SHT31;25763;49.972;8.568;2023-04-05T06:42:08;3.43;63.92
40059;SHT31;25763;49.972;8.568;2023-04-05T06:44:33;3.54;64.22
40059;SHT31;25763;49.972;8.568;2023-04-05T06:46:59;3.19;64.01
40059;SHT31;25763;49.972;8.568;2023-04-05T06:49:24;3.78;63.22
40059;SHT31;25763;49.972;8.568;2023-04-05T06:51:50;4.31;62.58
40059;SHT31;25763;49.972;8.568;2023-04-05T06:54:15;4.11;60.83
40059;SHT31;25763;49.972;8.568;2023-04-05T06:56:40;4.25;60.83
40059;SHT31;25763;49.972;8.568;2023-04-05T06:59:06;4.16;60.58
40059;SHT31;25763;49.972;8.568;2023-04-05T07:01:31;4.13;60.38
40059;SHT31;25763;49.972;8.568;2023-04-05T07:03:57;4.38;60.95
40059;SHT31;25763;49.972;8.568;2023-04-05T07:06:22;4.01;59.92
40059;SHT31;25763;49.972;8.568;2023-04-05T07:08:48;4.60;60.10
40059;SHT31;25763;49.972;8.568;2023-04-05T07:11:13;4.80;58.34
40059;SHT31;25763;49.972;8.568;2023-04-05T07:13:40;5.12;57.98
40059;SHT31;25763;49.972;8.568;2023-04-05T07:16:05;4.76;57.82
40059;SHT31;25763;49.972;8.568;2023-04-05T07:18:31;4.76;57.84
40059;SHT31;25763;49.972;8.568;2023-04-05T07:20:57;4.90;57.42
40059;SHT31;25763;49.972;8.568;2023-04-05T07:23:25;5.54;57.56
40059;SHT31;25763;49.972;8.568;2023-04-05T07:25:52;5.54;56.02
40059;SHT31;25763;49.972;8.568;2023-04-05T07:28:17;6.12;56.61
40059;SHT31;25763;49.972;8.568;2023-04-05T07:30:42;6.36;54.13
40059;SHT31;25763;49.972;8.568;2023-04-05T07:33:08;6.30;52.77
40059;SHT31;25763;49.972;8.568;2023-04-05T07:35:33;6.06;52.42
40059;SHT31;25763;49.972;8.568;2023-04-05T07:37:59;5.56;52.17
40059;SHT31;25763;49.972;8.568;2023-04-05T07:40:24;5.40;53.37
40059;SHT31;25763;49.972;8.568;2023-04-05T07:42:49;5.78;52.61
40059;SHT31;25763;49.972;8.568;2023-04-05T07:45:15;5.94;52.35
40059;SHT31;25763;49.972;8.568;2023-04-05T07:47:40;5.97;51.05
40059;SHT31;25763;49.972;8.568;2023-04-05T07:50:06;6.20;50.10
40059;SHT31;25763;49.972;8.568;2023-04-05T07:52:34;6.54;49.58
40059;SHT31;25763;49.972;8.568;2023-04-05T07:54:59;6.20;49.65
40059;SHT31;25763;49.972;8.568;2023-04-05T07:57:25;6.29;50.22
40059;SHT31;25763;49.972;8.568;2023-04-05T07:59:52;6.06;51.31
40059;SHT31;25763;49.972;8.568;2023-04-05T08:02:18;6.37;49.12
40059;SHT31;25763;49.972;8.568;2023-04-05T08:04:44;6.65;48.32
40059;SHT31;25763;49.972;8.568;2023-04-05T08:07:10;6.67;49.12
40059;SHT31;25763;49.972;8.568;2023-04-05T08:09:36;6.92;49.05
40059;SHT31;25763;49.972;8.568;2023-04-05T08:12:01;7.56;50.37
40059;SHT31;25763;49.972;8.568;2023-04-05T08:14:27;8.29;49.94
40059;SHT31;25763;49.972;8.568;2023-04-05T08:16:53;7.97;45.31
40059;SHT31;25763;49.972;8.568;2023-04-05T08:19:18;7.55;45.64
40059;SHT31;25763;49.972;8.568;2023-04-05T08:21:44;7.09;46.36
40059;SHT31;25763;49.972;8.568;2023-04-05T08:24:09;7.36;47.26
40059;SHT31;25763;49.972;8.568;2023-04-05T08:26:35;7.90;46.78
40059;SHT31;25763;49.972;8.568;2023-04-05T08:29:00;8.42;46.78
40059;SHT31;25763;49.972;8.568;2023-04-05T08:31:25;8.83;45.09
40059;SHT31;25763;49.972;8.568;2023-04-05T08:33:51;8.49;44.40
40059;SHT31;25763;49.972;8.568;2023-04-05T08:36:16;7.46;46.17
40059;SHT31;25763;49.972;8.568;2023-04-05T08:38:42;8.46;48.06
40059;SHT31;25763;49.972;8.568;2023-04-05T08:41:16;8.78;44.80
40059;SHT31;25763;49.972;8.568;2023-04-05T08:44:02;8.53;44.02
40059;SHT31;25763;49.972;8.568;2023-04-05T08:46:29;8.84;44.12
40059;SHT31;25763;49.972;8.568;2023-04-05T08:48:56;9.64;45.39
40059;SHT31;25763;49.972;8.568;2023-04-05T08:51:23;9.27;43.11
40059;SHT31;25763;49.972;8.568;2023-04-05T08:53:49;8.60;44.00
40059;SHT31;25763;49.972;8.568;2023-04-05T08:56:15;8.45;42.50
40059;SHT31;25763;49.972;8.568;2023-04-05T08:59:03;8.88;43.07
40059;SHT31;25763;49.972;8.568;2023-04-05T09:01:30;8.45;42.74
40059;SHT31;25763;49.972;8.568;2023-04-05T09:04:04;8.08;43.48
40059;SHT31;25763;49.972;8.568;2023-04-05T09:06:30;8.35;43.25
40059;SHT31;25763;49.972;8.568;2023-04-05T09:08:58;8.33;42.57
40059;SHT31;25763;49.972;8.568;2023-04-05T09:11:24;8.75;43.03
40059;SHT31;25763;49.972;8.568;2023-04-05T09:13:50;8.68;41.85
40059;SHT31;25763;49.972;8.568;2023-04-05T09:16:16;8.75;41.87
40059;SHT31;25763;49.972;8.568;2023-04-05T09:18:42;8.74;42.16
40059;SHT31;25763;49.972;8.568;2023-04-05T09:21:07;8.87;42.29
40059;SHT31;25763;49.972;8.568;2023-04-05T09:23:34;8.78;42.36
40059;SHT31;25763;49.972;8.568;2023-04-05T09:26:00;8.83;41.29
40059;SHT31;25763;49.972;8.568;2023-04-05T09:28:39;8.53;42.24
40059;SHT31;25763;49.972;8.568;2023-04-05T09:31:05;8.78;41.04
40059;SHT31;25763;49.972;8.568;2023-04-05T09:33:31;9.09;41.85
40059;SHT31;25763;49.972;8.568;2023-04-05T09:35:56;9.23;42.60
40059;SHT31;25763;49.972;8.568;2023-04-05T09:38:41;10.17;42.80
40059;SHT31;25763;49.972;8.568;2023-04-05T09:41:08;10.00;40.02
40059;SHT31;25763;49.972;8.568;2023-04-05T09:43:36;9.85;39.39
40059;SHT31;25763;49.972;8.568;2023-04-05T09:46:02;8.91;40.50
40059;SHT31;25763;49.972;8.568;2023-04-05T09:48:49;9.18;40.15
40059;SHT31;25763;49.972;8.568;2023-04-05T09:51:16;8.52;42.23
40059;SHT31;25763;49.972;8.568;2023-04-05T09:53:59;8.59;41.80
40059;SHT31;25763;49.972;8.568;2023-04-05T09:56:30;9.23;42.63
40059;SHT31;25763;49.972;8.568;2023-04-05T09:59:15;10.24;40.34
40059;SHT31;25763;49.972;8.568;2023-04-05T10:01:44;10.69;39.33
40059;SHT31;25763;49.972;8.568;2023-04-05T10:04:09;11.04;39.62
40059;SHT31;25763;49.972;8.568;2023-04-05T10:06:40;11.41;37.67
40059;SHT31;25763;49.972;8.568;2023-04-05T10:09:07;10.86;38.71
40059;SHT31;25763;49.972;8.568;2023-04-05T10:11:33;10.72;39.15
40059;SHT31;25763;49.972;8.568;2023-04-05T10:14:01;10.09;39.09
40059;SHT31;25763;49.972;8.568;2023-04-05T10:16:29;9.61;39.50
40059;SHT31;25763;49.972;8.568;2023-04-05T10:18:56;9.74;39.04
40059;SHT31;25763;49.972;8.568;2023-04-05T10:21:23;10.54;40.39
40059;SHT31;25763;49.972;8.568;2023-04-05T10:23:57;11.41;39.57
40059;SHT31;25763;49.972;8.568;2023-04-05T10:29:24;10.87;36.25
40059;SHT31;25763;49.972;8.568;2023-04-05T10:31:58;10.64;37.28
40059;SHT31;25763;49.972;8.568;2023-04-05T10:34:41;11.04;37.66
40059;SHT31;25763;49.972;8.568;2023-04-05T10:37:21;11.79;38.17
40059;SHT31;25763;49.972;8.568;2023-04-05T10:39:51;11.14;36.59
40059;SHT31;25763;49.972;8.568;2023-04-05T10:42:26;11.22;37.47
40059;SHT31;25763;49.972;8.568;2023-04-05T10:44:57;11.07;36.68
40059;SHT31;25763;49.972;8.568;2023-04-05T10:47:27;10.37;37.83
40059;SHT31;25763;49.972;8.568;2023-04-05T10:49:55;10.14;37.91
40059;SHT31;25763;49.972;8.568;2023-04-05T10:52:22;9.92;37.10
40059;SHT31;25763;49.972;8.568;2023-04-05T10:54:47;10.65;38.48
40059;SHT31;25763;49.972;8.568;2023-04-05T10:57:13;10.86;36.27
40059;SHT31;25763;49.972;8.568;2023-04-05T10:59:44;10.49;36.96
40059;SHT31;25763;49.972;8.568;2023-04-05T11:02:10;11.10;36.79
40059;SHT31;25763;49.972;8.568;2023-04-05T11:04:36;10.46;36.74
40059;SHT31;25763;49.972;8.568;2023-04-05T11:07:12;10.45;36.42
40059;SHT31;25763;49.972;8.568;2023-04-05T11:09:48;10.59;36.65
40059;SHT31;25763;49.972;8.568;2023-04-05T11:12:15;10.41;36.52
40059;SHT31;25763;49.972;8.568;2023-04-05T11:14:40;10.58;35.68
40059;SHT31;25763;49.972;8.568;2023-04-05T11:17:27;10.58;35.93
40059;SHT31;25763;49.972;8.568;2023-04-05T11:20:03;10.48;36.09
40059;SHT31;25763;49.972;8.568;2023-04-05T11:22:29;10.16;36.62
40059;SHT31;25763;49.972;8.568;2023-04-05T11:24:57;9.99;35.73
40059;SHT31;25763;49.972;8.568;2023-04-05T11:27:24;10.93;36.38
40059;SHT31;25763;49.972;8.568;2023-04-05T11:29:51;10.75;34.38
40059;SHT31;25763;49.972;8.568;2023-04-05T11:32:16;10.87;34.73
40059;SHT31;25763;49.972;8.568;2023-04-05T11:34:43;11.38;35.98
40059;SHT31;25763;49.972;8.568;2023-04-05T11:37:09;11.69;36.30
40059;SHT31;25763;49.972;8.568;2023-04-05T11:39:35;11.94;35.59
40059;SHT31;25763;49.972;8.568;2023-04-05T11:44:48;12.84;35.18
40059;SHT31;25763;49.972;8.568;2023-04-05T11:47:16;12.55;32.99
40059;SHT31;25763;49.972;8.568;2023-04-05T11:49:42;11.81;34.36
40059;SHT31;25763;49.972;8.568;2023-04-05T11:52:16;11.01;34.61
40059;SHT31;25763;49.972;8.568;2023-04-05T11:54:42;10.38;35.12
40059;SHT31;25763;49.972;8.568;2023-04-05T11:57:18;11.69;37.15
40059;SHT31;25763;49.972;8.568;2023-04-05T11:59:44;11.65;35.11
40059;SHT31;25763;49.972;8.568;2023-04-05T12:02:09;12.39;35.02
40059;SHT31;25763;49.972;8.568;2023-04-05T12:04:35;13.06;34.90
40059;SHT31;25763;49.972;8.568;2023-04-05T12:07:11;12.35;32.78
40059;SHT31;25763;49.972;8.568;2023-04-05T12:12:25;11.46;34.19
40059;SHT31;25763;49.972;8.568;2023-04-05T12:14:50;12.35;34.95
40059;SHT31;25763;49.972;8.568;2023-04-05T12:17:15;12.06;33.70
40059;SHT31;25763;49.972;8.568;2023-04-05T12:19:41;12.63;34.43
40059;SHT31;25763;49.972;8.568;2023-04-05T12:22:07;12.94;32.61
40059;SHT31;25763;49.972;8.568;2023-04-05T12:24:32;13.15;33.50
40059;SHT31;25763;49.972;8.568;2023-04-05T12:26:59;12.94;32.89
40059;SHT31;25763;49.972;8.568;2023-04-05T12:29:24;13.19;32.31
40059;SHT31;25763;49.972;8.568;2023-04-05T12:31:50;13.30;31.45
40059;SHT31;25763;49.972;8.568;2023-04-05T12:34:22;13.39;31.48
40059;SHT31;25763;49.972;8.568;2023-04-05T12:36:48;13.64;31.72
40059;SHT31;25763;49.972;8.568;2023-04-05T12:39:15;13.14;31.64
40059;SHT31;25763;49.972;8.568;2023-04-05T12:41:40;13.58;31.81
40059;SHT31;25763;49.972;8.568;2023-04-05T12:44:16;13.62;31.77
40059;SHT31;25763;49.972;8.568;2023-04-05T12:46:59;13.61;31.90
40059;SHT31;25763;49.972;8.568;2023-04-05T12:49:26;13.96;31.11
40059;SHT31;25763;49.972;8.568;2023-04-05T12:51:51;14.48;31.04
40059;SHT31;25763;49.972;8.568;2023-04-05T12:54:21;14.21;29.97
40059;SHT31;25763;49.972;8.568;2023-04-05T12:56:51;14.28;29.46
40059;SHT31;25763;49.972;8.568;2023-04-05T12:59:17;14.37;29.81
40059;SHT31;25763;49.972;8.568;2023-04-05T13:01:43;13.18;30.73
40059;SHT31;25763;49.972;8.568;2023-04-05T13:04:08;13.71;30.24
40059;SHT31;25763;49.972;8.568;2023-04-05T13:06:33;13.48;29.48
40059;SHT31;25763;49.972;8.568;2023-04-05T13:08:59;13.67;30.44
40059;SHT31;25763;49.972;8.568;2023-04-05T13:11:24;12.47;29.80
40059;SHT31;25763;49.972;8.568;2023-04-05T13:13:50;12.57;30.10
40059;SHT31;25763;49.972;8.568;2023-04-05T13:16:15;13.06;31.61
40059;SHT31;25763;49.972;8.568;2023-04-05T13:18:41;13.57;30.54
40059;SHT31;25763;49.972;8.568;2023-04-05T13:21:07;13.73;29.79
40059;SHT31;25763;49.972;8.568;2023-04-05T13:23:37;12.81;28.98
40059;SHT31;25763;49.972;8.568;2023-04-05T13:26:03;12.70;29.53
40059;SHT31;25763;49.972;8.568;2023-04-05T13:28:29;13.51;30.46
40059;SHT31;25763;49.972;8.568;2023-04-05T13:30:54;13.79;29.98
40059;SHT31;25763;49.972;8.568;2023-04-05T13:33:20;13.57;29.43
40059;SHT31;25763;49.972;8.568;2023-04-05T13:35:46;13.61;29.62
40059;SHT31;25763;49.972;8.568;2023-04-05T13:38:11;14.18;30.83
40059;SHT31;25763;49.972;8.568;2023-04-05T13:40:37;14.16;29.66
40059;SHT31;25763;49.972;8.568;2023-04-05T13:43:03;13.99;29.30
40059;SHT31;25763;49.972;8.568;2023-04-05T13:45:28;13.83;29.10
40059;SHT31;25763;49.972;8.568;2023-04-05T13:47:54;13.83;28.36
40059;SHT31;25763;49.972;8.568;2023-04-05T13:50:19;14.13;28.29
40059;SHT31;25763;49.972;8.568;2023-04-05T13:52:45;14.34;29.03
40059;SHT31;25763;49.972;8.568;2023-04-05T13:55:10;14.34;28.92
40059;SHT31;25763;49.972;8.568;2023-04-05T13:57:35;14.58;28.66
40059;SHT31;25763;49.972;8.568;2023-04-05T14:00:01;13.71;27.21
40059;SHT31;25763;49.972;8.568;2023-04-05T14:02:26;14.10;27.69
40059;SHT31;25763;49.972;8.568;2023-04-05T14:04:52;13.96;27.88
40059;SHT31;25763;49.972;8.568;2023-04-05T14:07:22;14.09;27.95
40059;SHT31;25763;49.972;8.568;2023-04-05T14:09:47;13.12;27.03
40059;SHT31;25763;49.972;8.568;2023-04-05T14:12:12;13.33;28.19
40059;SHT31;25763;49.972;8.568;2023-04-05T14:14:38;13.64;27.35
40059;SHT31;25763;49.972;8.568;2023-04-05T14:17:03;13.73;26.92
40059;SHT31;25763;49.972;8.568;2023-04-05T14:19:29;14.08;27.22
40059;SHT31;25763;49.972;8.568;2023-04-05T14:21:55;13.99;26.74
40059;SHT31;25763;49.972;8.568;2023-04-05T14:24:21;13.73;26.55
40059;SHT31;25763;49.972;8.568;2023-04-05T14:26:46;14.21;27.72
40059;SHT31;25763;49.972;8.568;2023-04-05T14:29:17;14.17;26.54
40059;SHT31;25763;49.972;8.568;2023-04-05T14:31:43;14.00;26.58
40059;SHT31;25763;49.972;8.568;2023-04-05T14:34:10;14.08;27.35
40059;SHT31;25763;49.972;8.568;2023-04-05T14:36:35;13.91;27.72
40059;SHT31;25763;49.972;8.568;2023-04-05T14:39:01;13.71;26.80
40059;SHT31;25763;49.972;8.568;2023-04-05T14:41:26;14.24;27.81
40059;SHT31;25763;49.972;8.568;2023-04-05T14:43:52;13.68;27.95
40059;SHT31;25763;49.972;8.568;2023-04-05T14:46:18;14.05;27.04
40059;SHT31;25763;49.972;8.568;2023-04-05T14:48:43;14.31;28.11
40059;SHT31;25763;49.972;8.568;2023-04-05T14:51:09;14.20;26.90
40059;SHT31;25763;49.972;8.568;2023-04-05T14:53:34;14.44;27.26
40059;SHT31;25763;49.972;8.568;2023-04-05T14:56:00;13.64;25.82
40059;SHT31;25763;49.972;8.568;2023-04-05T14:58:25;13.08;26.43
40059;SHT31;25763;49.972;8.568;2023-04-05T15:00:53;13.14;26.05
40059;SHT31;25763;49.972;8.568;2023-04-05T15:03:19;12.32;26.10
40059;SHT31;25763;49.972;8.568;2023-04-05T15:05:45;11.86;26.59
40059;SHT31;25763;49.972;8.568;2023-04-05T15:08:11;12.40;28.47
40059;SHT31;25763;49.972;8.568;2023-04-05T15:10:38;12.46;26.64
40059;SHT31;25763;49.972;8.568;2023-04-05T15:13:03;12.11;26.66
40059;SHT31;25763;49.972;8.568;2023-04-05T15:15:28;12.11;25.76
40059;SHT31;25763;49.972;8.568;2023-04-05T15:17:55;12.87;26.59
40059;SHT31;25763;49.972;8.568;2023-04-05T15:20:20;13.15;26.32
40059;SHT31;25763;49.972;8.568;2023-04-05T15:22:45;13.23;25.54
40059;SHT31;25763;49.972;8.568;2023-04-05T15:25:11;12.61;25.50
40059;SHT31;25763;49.972;8.568;2023-04-05T15:27:36;13.04;27.11
40059;SHT31;25763;49.972;8.568;2023-04-05T15:30:02;13.40;26.23
40059;SHT31;25763;49.972;8.568;2023-04-05T15:32:27;13.06;26.27
40059;SHT31;25763;49.972;8.568;2023-04-05T15:34:53;12.22;25.40
40059;SHT31;25763;49.972;8.568;2023-04-05T15:37:18;12.01;25.49
40059;SHT31;25763;49.972;8.568;2023-04-05T15:39:43;12.18;26.56
40059;SHT31;25763;49.972;8.568;2023-04-05T15:42:09;12.42;27.35
40059;SHT31;25763;49.972;8.568;2023-04-05T15:44:34;12.47;26.71
40059;SHT31;25763;49.972;8.568;2023-04-05T15:47:00;12.12;27.47
40059;SHT31;25763;49.972;8.568;2023-04-05T15:49:26;11.61;27.16
40059;SHT31;25763;49.972;8.568;2023-04-05T15:51:52;11.03;28.17
40059;SHT31;25763;49.972;8.568;2023-04-05T15:54:17;11.35;27.53